KLM186 EDDK-EHRD
Flight info
| Callsign | KLM186 |
|---|---|
| Flight time | N/A |
| Altitude | 22000 |
| Route | NVO Y868 SOGRI L608 BUB Y28 HELEN |
| Aircraft | B738/M-SDE2E3FGHIRWXY/LB1 |
Departure
| Time | 2026-04-22 19:39 |
|---|---|
| Airport | Cologne Bonn Airport (EDDK) |
Arrival
| Time | N/A |
|---|---|
| Airport | Rotterdam The Hague Airport (EHRD) |
| Time | Latitude | Longitude | Altitude | Speed | Heading |
|---|---|---|---|---|---|
| 2026-04-22 19:21 | 50.88201 | 7.11906 | 234 ft | 0 kts | 216° |
| 2026-04-22 19:33 | 50.88202 | 7.11907 | 231 ft | 2 kts | 216° |
| 2026-04-22 19:33 | 50.88215 | 7.11922 | 234 ft | 2 kts | 216° |
| 2026-04-22 19:33 | 50.88228 | 7.11937 | 234 ft | 2 kts | 216° |
| 2026-04-22 19:33 | 50.88241 | 7.11953 | 234 ft | 2 kts | 213° |
| 2026-04-22 19:34 | 50.88256 | 7.11953 | 235 ft | 2 kts | 120° |
| 2026-04-22 19:34 | 50.88263 | 7.11930 | 235 ft | 2 kts | 140° |
| 2026-04-22 19:34 | 50.88264 | 7.11929 | 235 ft | 0 kts | 142° |
| 2026-04-22 19:35 | 50.88262 | 7.11931 | 235 ft | 2 kts | 141° |
| 2026-04-22 19:35 | 50.88223 | 7.12010 | 231 ft | 13 kts | 123° |
| 2026-04-22 19:35 | 50.88170 | 7.12128 | 231 ft | 14 kts | 129° |
| 2026-04-22 19:36 | 50.88109 | 7.12252 | 232 ft | 14 kts | 114° |
| 2026-04-22 19:36 | 50.88069 | 7.12393 | 232 ft | 15 kts | 124° |
| 2026-04-22 19:36 | 50.88014 | 7.12541 | 233 ft | 11 kts | 118° |
| 2026-04-22 19:36 | 50.87983 | 7.12646 | 233 ft | 10 kts | 105° |
| 2026-04-22 19:37 | 50.87985 | 7.12665 | 232 ft | 0 kts | 82° |
| 2026-04-22 19:37 | 50.87985 | 7.12666 | 232 ft | 1 kts | 82° |
| 2026-04-22 19:37 | 50.87993 | 7.12726 | 236 ft | 9 kts | 77° |
| 2026-04-22 19:38 | 50.88008 | 7.12840 | 238 ft | 12 kts | 86° |
| 2026-04-22 19:38 | 50.87963 | 7.13031 | 238 ft | 12 kts | 135° |
| 2026-04-22 19:38 | 50.87956 | 7.13042 | 238 ft | 0 kts | 135° |
| 2026-04-22 19:39 | 50.87890 | 7.13138 | 238 ft | 41 kts | 137° |
| 2026-04-22 19:39 | 50.87491 | 7.13717 | 240 ft | 111 kts | 137° |
| 2026-04-22 19:39 | 50.86785 | 7.14728 | 428 ft | 148 kts | 137° |
| 2026-04-22 19:39 | 50.85953 | 7.15833 | 1160 ft | 170 kts | 137° |
| 2026-04-22 19:40 | 50.84986 | 7.17131 | 2028 ft | 191 kts | 136° |
| 2026-04-22 19:40 | 50.83982 | 7.18558 | 2945 ft | 195 kts | 134° |
| 2026-04-22 19:40 | 50.82918 | 7.20141 | 3281 ft | 229 kts | 134° |
| 2026-04-22 19:40 | 50.81714 | 7.21951 | 4095 ft | 244 kts | 135° |
| 2026-04-22 19:41 | 50.80449 | 7.23775 | 5238 ft | 248 kts | 138° |
| 2026-04-22 19:41 | 50.78835 | 7.24984 | 6051 ft | 268 kts | 173° |
| 2026-04-22 19:41 | 50.76976 | 7.24753 | 7056 ft | 280 kts | 198° |
| 2026-04-22 19:41 | 50.75415 | 7.22963 | 8097 ft | 283 kts | 231° |
| 2026-04-22 19:42 | 50.74642 | 7.20082 | 8952 ft | 289 kts | 265° |
| 2026-04-22 19:42 | 50.74857 | 7.16943 | 9936 ft | 292 kts | 288° |
| 2026-04-22 19:42 | 50.75499 | 7.13865 | 10801 ft | 297 kts | 289° |
| 2026-04-22 19:42 | 50.75930 | 7.10636 | 11632 ft | 304 kts | 280° |
| 2026-04-22 19:43 | 50.76426 | 7.03705 | 12767 ft | 337 kts | 277° |
| 2026-04-22 19:43 | 50.76635 | 6.99947 | 13462 ft | 347 kts | 277° |
| 2026-04-22 19:43 | 50.76848 | 6.96119 | 14254 ft | 353 kts | 278° |
| 2026-04-22 19:44 | 50.77081 | 6.92227 | 15042 ft | 357 kts | 278° |
| 2026-04-22 19:44 | 50.77326 | 6.88297 | 15857 ft | 361 kts | 278° |
| 2026-04-22 19:44 | 50.77574 | 6.84333 | 16636 ft | 365 kts | 278° |
| 2026-04-22 19:44 | 50.77818 | 6.80312 | 17429 ft | 369 kts | 278° |
| 2026-04-22 19:45 | 50.78060 | 6.76255 | 18223 ft | 373 kts | 278° |
| 2026-04-22 19:45 | 50.78301 | 6.72161 | 18964 ft | 377 kts | 279° |
| 2026-04-22 19:45 | 50.78544 | 6.68018 | 19642 ft | 380 kts | 278° |
| 2026-04-22 19:45 | 50.78797 | 6.63834 | 20325 ft | 384 kts | 279° |
| 2026-04-22 19:46 | 50.79067 | 6.59615 | 20997 ft | 387 kts | 279° |
| 2026-04-22 19:46 | 50.79343 | 6.55365 | 21649 ft | 391 kts | 279° |
| 2026-04-22 19:46 | 50.79618 | 6.51069 | 22299 ft | 395 kts | 279° |
| 2026-04-22 19:46 | 50.79898 | 6.46670 | 22354 ft | 406 kts | 278° |
| 2026-04-22 19:47 | 50.80169 | 6.42208 | 22386 ft | 412 kts | 278° |
| 2026-04-22 19:47 | 50.80440 | 6.37641 | 22393 ft | 423 kts | 278° |
| 2026-04-22 19:47 | 50.80722 | 6.32948 | 22384 ft | 433 kts | 278° |
| 2026-04-22 19:47 | 50.81013 | 6.28162 | 22363 ft | 438 kts | 278° |
| 2026-04-22 19:48 | 50.81300 | 6.23407 | 22361 ft | 432 kts | 278° |
| 2026-04-22 19:48 | 50.81584 | 6.18667 | 22364 ft | 435 kts | 278° |
| 2026-04-22 19:48 | 50.81868 | 6.13900 | 22356 ft | 434 kts | 278° |
| 2026-04-22 19:48 | 50.82148 | 6.09159 | 22353 ft | 433 kts | 279° |
| 2026-04-22 19:49 | 50.82774 | 6.04525 | 22389 ft | 429 kts | 289° |
| 2026-04-22 19:49 | 50.83591 | 5.99990 | 22381 ft | 429 kts | 289° |
| 2026-04-22 19:49 | 50.84460 | 5.95471 | 22357 ft | 428 kts | 291° |
| 2026-04-22 19:49 | 50.85370 | 5.90987 | 22379 ft | 428 kts | 291° |
| 2026-04-22 19:50 | 50.86289 | 5.86501 | 22375 ft | 428 kts | 291° |
| 2026-04-22 19:50 | 50.87188 | 5.81996 | 22375 ft | 429 kts | 291° |
| 2026-04-22 19:50 | 50.88062 | 5.77492 | 22369 ft | 429 kts | 290° |
| 2026-04-22 19:50 | 50.88933 | 5.72968 | 22381 ft | 429 kts | 290° |
| 2026-04-22 19:51 | 50.89805 | 5.68460 | 22369 ft | 429 kts | 290° |
| 2026-04-22 19:51 | 50.90686 | 5.63948 | 22386 ft | 428 kts | 291° |
| 2026-04-22 19:51 | 50.91566 | 5.59448 | 22378 ft | 428 kts | 291° |
| 2026-04-22 19:51 | 50.92446 | 5.54927 | 22383 ft | 429 kts | 290° |
| 2026-04-22 19:52 | 50.93319 | 5.50409 | 22371 ft | 428 kts | 290° |
| 2026-04-22 19:52 | 50.94186 | 5.45901 | 22374 ft | 428 kts | 290° |
| 2026-04-22 19:52 | 50.95055 | 5.41376 | 22366 ft | 429 kts | 290° |
| 2026-04-22 19:52 | 50.95923 | 5.36855 | 22363 ft | 428 kts | 290° |
| 2026-04-22 19:53 | 50.96789 | 5.32332 | 22369 ft | 429 kts | 290° |
| 2026-04-22 19:53 | 50.97883 | 5.27968 | 22384 ft | 423 kts | 299° |
| 2026-04-22 19:53 | 50.99156 | 5.23745 | 22379 ft | 424 kts | 300° |
| 2026-04-22 19:53 | 51.00463 | 5.19553 | 22375 ft | 424 kts | 301° |
| 2026-04-22 19:54 | 51.01803 | 5.15394 | 22376 ft | 423 kts | 301° |
| 2026-04-22 19:54 | 51.03153 | 5.11238 | 22372 ft | 424 kts | 301° |
| 2026-04-22 19:54 | 51.04489 | 5.07064 | 22364 ft | 424 kts | 301° |
| 2026-04-22 19:54 | 51.05788 | 5.02939 | 22369 ft | 424 kts | 300° |
| 2026-04-22 19:55 | 51.07102 | 4.98742 | 22367 ft | 424 kts | 300° |
| 2026-04-22 19:55 | 51.08418 | 4.94544 | 22366 ft | 424 kts | 300° |
| 2026-04-22 19:55 | 51.09756 | 4.90300 | 22369 ft | 424 kts | 301° |
| 2026-04-22 19:55 | 51.11060 | 4.86163 | 22371 ft | 424 kts | 300° |
| 2026-04-22 19:56 | 51.12378 | 4.81971 | 22374 ft | 423 kts | 300° |
| 2026-04-22 19:56 | 51.13709 | 4.77718 | 22378 ft | 424 kts | 300° |
| 2026-04-22 19:56 | 51.15026 | 4.73500 | 22102 ft | 429 kts | 300° |
| 2026-04-22 19:56 | 51.16325 | 4.69332 | 21715 ft | 421 kts | 300° |
| 2026-04-22 19:57 | 51.17611 | 4.65191 | 21314 ft | 413 kts | 300° |
| 2026-04-22 19:57 | 51.18897 | 4.61051 | 20905 ft | 410 kts | 300° |
| 2026-04-22 19:57 | 51.20151 | 4.57024 | 20514 ft | 411 kts | 300° |
| 2026-04-22 19:57 | 51.21411 | 4.52966 | 20103 ft | 407 kts | 300° |
| 2026-04-22 19:58 | 51.22655 | 4.48943 | 19701 ft | 402 kts | 300° |
| 2026-04-22 19:58 | 51.23881 | 4.44966 | 19274 ft | 398 kts | 300° |
| 2026-04-22 19:58 | 51.25099 | 4.41017 | 18853 ft | 395 kts | 300° |
| 2026-04-22 19:58 | 51.26307 | 4.37095 | 18409 ft | 392 kts | 300° |
| 2026-04-22 19:59 | 51.27507 | 4.33197 | 17932 ft | 390 kts | 300° |
| 2026-04-22 20:00 | 51.37415 | 4.15939 | 15143 ft | 349 kts | 5° |
| 2026-04-22 20:00 | 51.39536 | 4.16297 | 14736 ft | 345 kts | 9° |
| 2026-04-22 20:01 | 51.41886 | 4.16855 | 14273 ft | 336 kts | 11° |
| 2026-04-22 20:01 | 51.44143 | 4.17441 | 13789 ft | 321 kts | 11° |
| 2026-04-22 20:01 | 51.46305 | 4.17976 | 13264 ft | 308 kts | 11° |
| 2026-04-22 20:01 | 51.48388 | 4.18453 | 12741 ft | 297 kts | 10° |
| 2026-04-22 20:02 | 51.50382 | 4.18894 | 12232 ft | 289 kts | 10° |
| 2026-04-22 20:02 | 51.52360 | 4.19336 | 11742 ft | 285 kts | 10° |
| 2026-04-22 20:02 | 51.54316 | 4.19783 | 11243 ft | 284 kts | 10° |
| 2026-04-22 20:02 | 51.56259 | 4.20231 | 10669 ft | 281 kts | 10° |
| 2026-04-22 20:03 | 51.58185 | 4.20675 | 10096 ft | 279 kts | 10° |
| 2026-04-22 20:03 | 51.60098 | 4.21116 | 9475 ft | 276 kts | 10° |
| 2026-04-22 20:03 | 51.62000 | 4.21424 | 8872 ft | 276 kts | 4° |
| 2026-04-22 20:03 | 51.63910 | 4.21464 | 8283 ft | 273 kts | 2° |
| 2026-04-22 20:04 | 51.65801 | 4.21439 | 7694 ft | 271 kts | 1° |
| 2026-04-22 20:04 | 51.67674 | 4.21385 | 7142 ft | 268 kts | 1° |
| 2026-04-22 20:04 | 51.69528 | 4.21333 | 6652 ft | 265 kts | 1° |
| 2026-04-22 20:04 | 51.71359 | 4.21294 | 6175 ft | 262 kts | 1° |
| 2026-04-22 20:05 | 51.73177 | 4.21263 | 5656 ft | 260 kts | 1° |
| 2026-04-22 20:05 | 51.74977 | 4.21234 | 5137 ft | 258 kts | 1° |
| 2026-04-22 20:05 | 51.76767 | 4.21202 | 4645 ft | 260 kts | 1° |
| 2026-04-22 20:05 | 51.78594 | 4.21169 | 4139 ft | 265 kts | 2° |
| 2026-04-22 20:06 | 51.80451 | 4.21134 | 3661 ft | 269 kts | 2° |
| 2026-04-22 20:06 | 51.82334 | 4.21100 | 3215 ft | 272 kts | 2° |
| 2026-04-22 20:06 | 51.84229 | 4.21073 | 2731 ft | 273 kts | 5° |
| 2026-04-22 20:06 | 51.86000 | 4.21738 | 2197 ft | 258 kts | 29° |
| 2026-04-22 20:07 | 51.87367 | 4.23448 | 2054 ft | 233 kts | 51° |
| 2026-04-22 20:07 | 51.88240 | 4.25446 | 2118 ft | 210 kts | 59° |
| 2026-04-22 20:07 | 51.89009 | 4.27367 | 2140 ft | 194 kts | 59° |
| 2026-04-22 20:07 | 51.89706 | 4.29105 | 2096 ft | 176 kts | 59° |
| 2026-04-22 20:08 | 51.90370 | 4.30755 | 1749 ft | 174 kts | 60° |
| 2026-04-22 20:08 | 51.91016 | 4.32332 | 1591 ft | 159 kts | 59° |
| 2026-04-22 20:08 | 51.91623 | 4.33769 | 1374 ft | 149 kts | 56° |
| 2026-04-22 20:08 | 51.92180 | 4.35075 | 1161 ft | 136 kts | 59° |
| 2026-04-22 20:09 | 51.92677 | 4.36319 | 938 ft | 126 kts | 57° |
| 2026-04-22 20:09 | 51.93186 | 4.37464 | 731 ft | 128 kts | 43° |